createdAt,value
2023-12-11T00:00:09.830Z,1.00
2023-12-11T00:02:38.541Z,1.00
2023-12-11T00:05:09.580Z,1.00
2023-12-11T00:07:38.459Z,1.00
2023-12-11T00:10:08.339Z,1.00
2023-12-11T00:12:38.092Z,1.00
2023-12-11T00:15:07.699Z,1.00
2023-12-11T00:17:36.562Z,1.00
2023-12-11T00:20:05.768Z,1.00
2023-12-11T00:22:35.964Z,1.00
2023-12-11T00:25:04.922Z,1.00
2023-12-11T00:27:33.802Z,1.00
2023-12-11T00:30:03.027Z,1.00
2023-12-11T00:32:31.785Z,1.00
2023-12-11T00:35:00.825Z,1.00
2023-12-11T00:37:29.897Z,1.00
2023-12-11T00:40:00.349Z,1.00
2023-12-11T00:42:29.162Z,1.00
2023-12-11T00:44:57.936Z,1.00
2023-12-11T00:47:26.850Z,2.20
2023-12-11T00:49:55.690Z,20.40
2023-12-11T00:52:24.567Z,28.20
2023-12-11T00:54:53.225Z,54.90
2023-12-11T00:57:23.694Z,67.10
2023-12-11T00:59:52.358Z,93.20
2023-12-11T01:02:21.062Z,92.40
2023-12-11T01:04:49.782Z,91.30
2023-12-11T01:07:18.523Z,66.50
2023-12-11T01:09:47.216Z,69.20
2023-12-11T01:12:16.440Z,85.20
2023-12-11T01:14:46.542Z,73.20
2023-12-11T01:17:37.164Z,95.00
2023-12-11T01:20:05.446Z,94.50
2023-12-11T01:22:34.231Z,86.20
2023-12-11T01:25:04.723Z,95.30
2023-12-11T01:27:33.837Z,99.90
2023-12-11T01:30:04.501Z,99.90
2023-12-11T01:32:33.190Z,99.90
2023-12-11T01:35:02.021Z,99.90
2023-12-11T01:37:31.068Z,99.90
2023-12-11T01:40:00.071Z,99.90
2023-12-11T01:42:28.853Z,99.90
2023-12-11T01:44:57.549Z,99.90
2023-12-11T01:47:28.061Z,99.90
2023-12-11T01:49:57.100Z,99.90
2023-12-11T01:52:26.416Z,99.90
2023-12-11T01:54:55.441Z,99.90
2023-12-11T01:57:24.714Z,99.90
2023-12-11T01:59:53.768Z,99.90
2023-12-11T02:02:22.529Z,99.90
2023-12-11T02:04:55.512Z,99.90
2023-12-11T02:07:24.483Z,99.90
2023-12-11T02:09:53.374Z,99.90
2023-12-11T02:12:22.146Z,99.90
2023-12-11T02:14:50.715Z,99.90
2023-12-11T02:17:19.452Z,99.90
2023-12-11T02:19:48.214Z,99.90
2023-12-11T02:22:18.664Z,99.90
2023-12-11T02:24:52.276Z,99.90
2023-12-11T02:27:22.575Z,99.90
2023-12-11T02:29:52.114Z,99.90
2023-12-11T02:32:21.008Z,99.90
2023-12-11T02:34:49.788Z,99.90
2023-12-11T02:37:18.635Z,99.90
2023-12-11T02:39:48.196Z,99.90
2023-12-11T02:42:16.915Z,99.90
2023-12-11T02:44:47.052Z,99.90
2023-12-11T02:47:15.861Z,99.90
2023-12-11T02:49:44.579Z,99.90
2023-12-11T02:52:13.454Z,99.90
2023-12-11T02:54:42.213Z,99.90
2023-12-11T02:57:10.997Z,99.90
2023-12-11T02:59:39.704Z,99.90
2023-12-11T03:02:09.783Z,99.90
2023-12-11T03:04:38.531Z,99.90
2023-12-11T03:07:07.378Z,99.90
2023-12-11T03:09:36.158Z,99.90
2023-12-11T03:12:05.262Z,99.90
2023-12-11T03:14:33.956Z,99.90
2023-12-11T03:17:02.687Z,99.90
2023-12-11T03:19:36.006Z,99.90
2023-12-11T03:22:04.907Z,99.90
2023-12-11T03:24:33.578Z,99.90
2023-12-11T03:27:02.362Z,99.90
2023-12-11T03:29:31.099Z,99.90
2023-12-11T03:31:59.852Z,99.90
2023-12-11T03:34:28.724Z,99.90
2023-12-11T03:36:58.904Z,99.90
2023-12-11T03:39:27.764Z,99.90
2023-12-11T03:41:57.445Z,99.90
2023-12-11T03:44:26.201Z,99.90
2023-12-11T03:46:54.884Z,99.90
2023-12-11T03:49:23.776Z,99.90
2023-12-11T03:51:52.737Z,99.90
2023-12-11T03:54:22.894Z,99.90
2023-12-11T03:56:51.632Z,99.90
2023-12-11T03:59:20.416Z,99.90
2023-12-11T04:01:49.318Z,99.90
2023-12-11T04:04:18.434Z,99.90
2023-12-11T04:06:47.207Z,99.90
2023-12-11T04:09:15.959Z,99.90
2023-12-11T04:11:46.760Z,99.90
2023-12-11T04:14:15.454Z,99.90
2023-12-11T04:16:44.227Z,99.90
2023-12-11T04:19:13.821Z,99.90
2023-12-11T04:21:42.865Z,99.90
2023-12-11T04:24:14.241Z,99.90
2023-12-11T04:26:43.809Z,99.90
2023-12-11T04:29:14.058Z,98.70
2023-12-11T04:31:42.800Z,99.90
2023-12-11T04:34:11.630Z,99.90
2023-12-11T04:36:43.298Z,99.20
2023-12-11T04:39:14.075Z,99.90
2023-12-11T04:41:43.103Z,93.30
2023-12-11T04:44:14.664Z,84.30
2023-12-11T04:46:44.730Z,97.40
2023-12-11T04:49:13.527Z,99.90
2023-12-11T04:51:42.290Z,99.90
2023-12-11T04:54:11.006Z,99.90
2023-12-11T04:56:39.698Z,99.90
2023-12-11T04:59:08.426Z,99.90
2023-12-11T05:01:37.374Z,99.90
2023-12-11T05:04:07.876Z,95.10
2023-12-11T05:06:36.782Z,99.90
2023-12-11T05:09:06.225Z,93.60
2023-12-11T05:11:34.981Z,93.00
2023-12-11T05:14:03.822Z,97.10
2023-12-11T05:16:32.686Z,91.60
2023-12-11T05:19:01.423Z,78.70
2023-12-11T05:21:31.585Z,61.70
2023-12-11T05:24:00.514Z,85.60
2023-12-11T05:26:29.205Z,77.70
2023-12-11T05:28:57.902Z,78.30
2023-12-11T05:31:26.536Z,47.90
2023-12-11T05:33:56.392Z,49.30
2023-12-11T05:36:25.355Z,46.00
2023-12-11T05:38:55.489Z,37.90
2023-12-11T05:41:24.265Z,44.70
2023-12-11T05:43:53.113Z,27.10
2023-12-11T05:46:21.989Z,7.40
2023-12-11T05:48:50.855Z,1.40
2023-12-11T05:51:19.687Z,15.80
2023-12-11T05:53:48.397Z,1.00
2023-12-11T05:56:18.406Z,1.00
2023-12-11T05:58:47.076Z,1.00
2023-12-11T06:01:15.932Z,1.00
2023-12-11T06:03:44.755Z,1.00
2023-12-11T06:06:18.115Z,1.00
2023-12-11T06:08:46.976Z,1.00
2023-12-11T06:11:15.564Z,1.00
2023-12-11T06:13:45.915Z,1.00
2023-12-11T06:16:15.105Z,1.00
2023-12-11T06:18:44.022Z,1.00
2023-12-11T06:21:20.297Z,1.00
2023-12-11T06:23:49.617Z,1.00
2023-12-11T06:26:34.855Z,1.00
2023-12-11T06:29:05.266Z,1.00
2023-12-11T06:31:35.634Z,1.00
2023-12-11T06:34:04.712Z,1.00
2023-12-11T06:36:33.742Z,1.00
2023-12-11T06:39:03.090Z,1.00
2023-12-11T06:41:32.216Z,1.00
2023-12-11T06:44:01.922Z,1.00
2023-12-11T06:46:32.393Z,1.00
2023-12-11T06:49:01.583Z,1.00
2023-12-11T06:51:31.870Z,1.00
2023-12-11T06:54:01.022Z,1.00
2023-12-11T06:56:32.524Z,1.00
2023-12-11T06:59:02.221Z,1.00
2023-12-11T07:01:35.279Z,1.00
2023-12-11T07:04:05.767Z,1.00
2023-12-11T07:06:35.204Z,1.00
2023-12-11T07:09:04.457Z,1.00
2023-12-11T07:11:34.208Z,1.00
2023-12-11T07:14:03.321Z,1.00
2023-12-11T07:16:37.373Z,1.00
2023-12-11T07:19:06.536Z,1.00
2023-12-11T07:21:36.345Z,1.00
2023-12-11T07:24:09.517Z,1.00
2023-12-11T07:26:39.340Z,1.00
2023-12-11T07:29:09.260Z,1.00
2023-12-11T07:31:41.248Z,1.00
2023-12-11T07:34:10.239Z,1.00
2023-12-11T07:36:39.112Z,1.00
2023-12-11T07:39:08.729Z,1.00
2023-12-11T07:41:37.765Z,1.00
2023-12-11T07:44:06.855Z,1.00
2023-12-11T07:46:38.162Z,1.00
2023-12-11T07:49:10.545Z,1.00
2023-12-11T07:51:40.802Z,1.00
2023-12-11T07:54:09.841Z,1.00
2023-12-11T07:56:39.745Z,1.00
2023-12-11T07:59:09.071Z,1.00
2023-12-11T08:01:38.041Z,1.00
2023-12-11T08:04:07.385Z,1.00
2023-12-11T08:06:45.369Z,1.00
2023-12-11T08:09:16.101Z,1.00
2023-12-11T08:11:44.884Z,1.00
2023-12-11T08:14:14.306Z,1.00
2023-12-11T08:16:43.456Z,1.00
2023-12-11T08:19:12.530Z,1.00
2023-12-11T08:21:43.721Z,1.00
2023-12-11T08:24:13.642Z,1.00
2023-12-11T08:26:42.408Z,1.00
2023-12-11T08:29:11.918Z,1.00
2023-12-11T08:31:41.066Z,1.00
2023-12-11T08:34:11.036Z,1.00
2023-12-11T08:36:49.397Z,1.00
2023-12-11T08:39:34.871Z,1.00
2023-12-11T08:42:05.984Z,1.00
2023-12-11T08:44:40.204Z,1.00
2023-12-11T08:47:41.702Z,1.00
2023-12-11T08:50:16.811Z,1.00
2023-12-11T08:52:49.660Z,1.00
2023-12-11T08:55:19.386Z,1.00
2023-12-11T08:57:48.266Z,1.00
2023-12-11T09:00:18.433Z,1.00
2023-12-11T09:02:51.713Z,99.90
2023-12-11T09:05:23.305Z,59.20
2023-12-11T09:07:53.549Z,1.00
2023-12-11T09:10:22.341Z,11.40
2023-12-11T09:12:51.601Z,99.90
2023-12-11T09:15:20.724Z,28.70
2023-12-11T09:17:49.845Z,99.90
2023-12-11T09:20:18.951Z,1.00
2023-12-11T09:22:49.138Z,1.00
2023-12-11T09:25:19.725Z,99.90
2023-12-11T09:27:49.100Z,1.00
2023-12-11T09:30:18.400Z,1.00
2023-12-11T09:32:47.463Z,99.90
2023-12-11T09:35:17.108Z,11.60
2023-12-11T09:37:47.250Z,99.90
2023-12-11T09:40:16.523Z,1.00
2023-12-11T09:42:47.025Z,1.00
2023-12-11T09:45:20.377Z,99.90
2023-12-11T09:48:03.841Z,99.90
2023-12-11T09:50:43.489Z,99.90
2023-12-11T09:53:12.888Z,99.90
2023-12-11T09:55:41.626Z,1.00
2023-12-11T09:58:12.967Z,1.00
2023-12-11T10:00:43.914Z,1.00
2023-12-11T10:03:13.174Z,99.90
2023-12-11T10:05:42.352Z,99.90
2023-12-11T10:08:12.428Z,99.90
2023-12-11T10:10:42.186Z,99.90
2023-12-11T10:13:25.445Z,99.90
2023-12-11T10:15:54.827Z,1.00
2023-12-11T10:18:26.626Z,99.90
2023-12-11T10:20:58.826Z,73.30
2023-12-11T10:23:28.254Z,1.00
2023-12-11T10:26:07.898Z,1.00
2023-12-11T10:28:38.381Z,1.00
2023-12-11T10:31:07.297Z,1.00
2023-12-11T10:33:37.042Z,99.90
2023-12-11T10:36:13.688Z,99.90
2023-12-11T10:38:43.024Z,1.00
2023-12-11T10:41:44.005Z,1.00
2023-12-11T10:44:40.222Z,1.00
2023-12-11T10:47:16.522Z,99.90
2023-12-11T10:49:45.298Z,99.90
2023-12-11T10:52:14.655Z,99.90
2023-12-11T10:54:44.186Z,99.90
2023-12-11T10:57:16.905Z,99.90
2023-12-11T10:59:48.189Z,93.90
2023-12-11T11:02:20.641Z,33.50
2023-12-11T11:04:50.140Z,11.10
2023-12-11T11:07:28.744Z,1.00
2023-12-11T11:10:06.613Z,1.00
2023-12-11T11:12:44.022Z,1.00
2023-12-11T11:15:14.397Z,1.00
2023-12-11T11:18:03.021Z,59.20
2023-12-11T11:20:37.520Z,99.90
2023-12-11T11:23:28.467Z,99.90
2023-12-11T11:25:58.887Z,99.90
2023-12-11T11:28:44.173Z,99.90
2023-12-11T11:31:23.797Z,99.90
2023-12-11T11:34:17.035Z,99.90
2023-12-11T11:36:48.141Z,98.20
2023-12-11T11:39:17.778Z,99.90
2023-12-11T11:41:49.792Z,99.90
2023-12-11T11:44:24.789Z,99.90
2023-12-11T11:47:01.612Z,99.90
2023-12-11T11:49:33.385Z,99.90
2023-12-11T11:52:05.981Z,99.90
2023-12-11T11:54:37.803Z,99.90
2023-12-11T11:57:07.958Z,99.90
2023-12-11T11:59:45.071Z,99.90
2023-12-11T12:02:23.936Z,96.90
2023-12-11T12:04:53.133Z,96.00
2023-12-11T12:07:22.976Z,40.90
2023-12-11T12:10:01.085Z,2.50
2023-12-11T12:12:29.923Z,1.00
2023-12-11T12:15:06.071Z,1.00
2023-12-11T12:17:37.290Z,1.00
2023-12-11T12:20:13.536Z,1.00
2023-12-11T12:22:55.820Z,1.00
2023-12-11T12:25:26.205Z,1.00
2023-12-11T12:27:57.908Z,1.00
2023-12-11T12:30:26.973Z,1.00
2023-12-11T12:32:58.088Z,1.00
2023-12-11T12:35:28.207Z,1.00
2023-12-11T12:37:58.236Z,1.00
2023-12-11T12:40:27.195Z,1.00
2023-12-11T12:42:57.765Z,1.00
2023-12-11T12:45:36.477Z,1.00
2023-12-11T12:48:09.872Z,1.00
2023-12-11T12:50:39.180Z,1.00
2023-12-11T12:53:09.777Z,1.00
2023-12-11T12:55:39.404Z,1.00
2023-12-11T12:58:09.504Z,1.00
2023-12-11T13:00:41.462Z,1.00
2023-12-11T13:03:11.939Z,1.00
2023-12-11T13:05:42.754Z,31.50
2023-12-11T13:08:13.964Z,40.70
2023-12-11T13:10:55.650Z,27.40
2023-12-11T13:13:28.262Z,5.30
2023-12-11T13:15:59.346Z,3.00
2023-12-11T13:18:32.471Z,16.60
2023-12-11T13:21:01.345Z,99.90
2023-12-11T13:23:30.204Z,99.90
2023-12-11T13:25:59.804Z,99.90
2023-12-11T13:28:28.734Z,99.90
2023-12-11T13:30:57.556Z,99.90
2023-12-11T13:33:29.470Z,99.90
2023-12-11T13:36:00.731Z,99.90
2023-12-11T13:38:29.802Z,99.90
2023-12-11T13:41:02.812Z,99.90
2023-12-11T13:43:32.736Z,99.90
2023-12-11T13:46:02.156Z,1.00
2023-12-11T13:48:32.479Z,1.00
2023-12-11T13:51:03.520Z,1.00
2023-12-11T13:53:32.321Z,41.10
2023-12-11T13:56:01.681Z,99.90
2023-12-11T13:58:32.362Z,1.00
2023-12-11T14:01:03.148Z,1.00
2023-12-11T14:03:32.660Z,4.20
2023-12-11T14:06:03.793Z,99.90
2023-12-11T14:08:33.721Z,99.90
2023-12-11T14:11:03.001Z,99.90
2023-12-11T14:13:32.040Z,99.90
2023-12-11T14:16:01.250Z,99.90
2023-12-11T14:18:32.058Z,99.90
2023-12-11T14:21:03.348Z,99.90
2023-12-11T14:23:32.143Z,95.40
2023-12-11T14:26:00.905Z,98.40
2023-12-11T14:28:30.245Z,81.50
2023-12-11T14:31:00.582Z,74.20
2023-12-11T14:33:29.506Z,72.70
2023-12-11T14:35:58.383Z,18.80
2023-12-11T14:38:28.432Z,13.50
2023-12-11T14:40:59.481Z,5.60
2023-12-11T14:43:30.361Z,17.90
2023-12-11T14:45:59.128Z,1.00
2023-12-11T14:48:27.926Z,1.00
2023-12-11T14:50:56.961Z,1.00
2023-12-11T14:53:26.277Z,1.00
2023-12-11T14:55:56.593Z,99.90
2023-12-11T14:58:25.621Z,1.00
2023-12-11T15:00:55.091Z,99.90
2023-12-11T15:03:24.383Z,70.50
2023-12-11T15:05:53.246Z,1.00
2023-12-11T15:08:23.582Z,99.90
2023-12-11T15:10:52.292Z,1.00
2023-12-11T15:14:21.603Z,1.00
2023-12-11T15:16:52.002Z,99.90
2023-12-11T15:19:20.951Z,1.00
2023-12-11T15:21:49.850Z,1.00
2023-12-11T15:24:18.636Z,1.00
2023-12-11T15:26:47.429Z,1.00
2023-12-11T15:29:17.684Z,1.00
2023-12-11T15:31:46.840Z,1.00
2023-12-11T15:34:15.900Z,99.90
2023-12-11T15:36:44.844Z,99.90
2023-12-11T15:39:13.699Z,99.90
2023-12-11T15:41:44.304Z,1.00
2023-12-11T15:44:13.577Z,99.90
2023-12-11T15:46:44.965Z,1.00
2023-12-11T15:49:14.013Z,1.00
2023-12-11T15:51:43.392Z,99.90
2023-12-11T15:54:12.906Z,99.90
2023-12-11T15:56:41.690Z,84.30
2023-12-11T15:59:10.608Z,99.90
2023-12-11T16:01:39.571Z,1.00
2023-12-11T16:04:09.888Z,1.00
2023-12-11T16:06:42.930Z,99.90
2023-12-11T16:09:12.309Z,1.00
2023-12-11T16:11:41.664Z,1.00
2023-12-11T16:14:10.687Z,1.00
2023-12-11T16:16:41.356Z,1.00
2023-12-11T16:19:12.799Z,3.80
2023-12-11T16:21:42.052Z,1.00
2023-12-11T16:24:10.810Z,1.00
2023-12-11T16:26:40.561Z,1.00
2023-12-11T16:29:10.467Z,1.00
2023-12-11T16:31:40.183Z,1.00
2023-12-11T16:34:09.008Z,1.00
2023-12-11T16:36:39.837Z,1.00
2023-12-11T16:39:08.901Z,99.90
2023-12-11T16:41:37.815Z,1.00
2023-12-11T16:44:07.032Z,99.90
2023-12-11T16:46:36.053Z,99.90
2023-12-11T16:49:05.446Z,99.90
2023-12-11T16:51:37.624Z,99.90
2023-12-11T16:54:08.290Z,1.00
2023-12-11T16:56:37.262Z,1.00
2023-12-11T16:59:09.011Z,1.00
2023-12-11T17:01:38.982Z,34.60
2023-12-11T17:04:07.947Z,1.00
2023-12-11T17:06:36.824Z,1.00
2023-12-11T17:09:07.446Z,83.30
2023-12-11T17:11:40.237Z,99.90
2023-12-11T17:14:09.029Z,99.90
2023-12-11T17:16:38.201Z,99.90
2023-12-11T17:19:09.004Z,99.90
2023-12-11T17:21:38.936Z,99.90
2023-12-11T17:24:10.214Z,99.90
2023-12-11T17:26:39.046Z,99.90
2023-12-11T17:29:08.097Z,99.90
2023-12-11T17:31:36.914Z,99.90
2023-12-11T17:34:05.779Z,99.90
2023-12-11T17:36:34.624Z,99.90
2023-12-11T17:39:03.816Z,99.90
2023-12-11T17:41:34.962Z,99.90
2023-12-11T17:44:03.937Z,99.90
2023-12-11T17:46:32.936Z,99.90
2023-12-11T17:49:01.804Z,99.90
2023-12-11T17:51:30.668Z,99.90
2023-12-11T17:53:59.454Z,99.90
2023-12-11T17:56:31.336Z,99.90
2023-12-11T17:59:02.966Z,99.90
2023-12-11T18:01:32.149Z,99.90
2023-12-11T18:04:01.309Z,99.90
2023-12-11T18:06:30.168Z,99.90
2023-12-11T18:08:59.106Z,99.90
2023-12-11T18:11:27.845Z,99.90
2023-12-11T18:13:56.807Z,99.90
2023-12-11T18:16:27.080Z,99.90
2023-12-11T18:18:56.170Z,99.90
2023-12-11T18:21:26.557Z,99.90
2023-12-11T18:23:58.248Z,99.90
2023-12-11T18:26:27.651Z,99.90
2023-12-11T18:28:56.880Z,99.90
2023-12-11T18:31:27.390Z,99.90
2023-12-11T18:33:56.503Z,99.90
2023-12-11T18:36:25.968Z,99.90
2023-12-11T18:38:54.824Z,99.90
2023-12-11T18:41:24.946Z,99.90
2023-12-11T18:43:55.641Z,99.90
2023-12-11T18:46:24.511Z,99.90
2023-12-11T18:48:58.438Z,99.90
2023-12-11T18:51:28.923Z,99.90
2023-12-11T18:53:58.870Z,99.90
2023-12-11T18:56:28.173Z,99.90
2023-12-11T18:58:57.200Z,99.90
2023-12-11T19:01:26.511Z,99.90
2023-12-11T19:03:56.966Z,99.90
2023-12-11T19:06:26.061Z,99.90
2023-12-11T19:08:55.004Z,99.90
2023-12-11T19:11:25.551Z,99.90
2023-12-11T19:13:55.099Z,99.90
2023-12-11T19:16:24.233Z,99.90
2023-12-11T19:18:53.398Z,99.90
2023-12-11T19:21:24.824Z,99.90
2023-12-11T19:23:56.224Z,99.90
2023-12-11T19:26:25.678Z,99.90
2023-12-11T19:28:54.982Z,99.90
2023-12-11T19:31:25.061Z,99.90
2023-12-11T19:33:54.653Z,99.90
2023-12-11T19:36:25.887Z,99.90
2023-12-11T19:38:55.929Z,99.90
2023-12-11T19:41:25.895Z,99.90
2023-12-11T19:43:56.243Z,99.90
2023-12-11T19:46:25.470Z,99.90
2023-12-11T19:48:54.491Z,99.90
2023-12-11T19:51:30.323Z,99.90
2023-12-11T19:54:00.865Z,99.90
2023-12-11T19:56:29.744Z,99.90
2023-12-11T19:58:58.643Z,99.90
2023-12-11T20:01:32.359Z,99.90
2023-12-11T20:04:02.120Z,99.90
2023-12-11T20:06:32.798Z,99.90
2023-12-11T20:09:03.521Z,99.90
2023-12-11T20:11:37.963Z,99.90
2023-12-11T20:18:01.546Z,99.90
2023-12-11T20:20:31.337Z,99.90
2023-12-11T20:23:02.679Z,99.90
2023-12-11T20:25:31.936Z,99.90
2023-12-11T20:28:01.245Z,99.90
2023-12-11T20:30:30.758Z,99.90
2023-12-11T20:33:00.241Z,99.90
2023-12-11T20:35:34.993Z,99.90
2023-12-11T20:38:06.324Z,99.90
2023-12-11T20:40:38.436Z,99.90
2023-12-11T20:43:08.536Z,99.90
2023-12-11T20:45:37.589Z,99.90
2023-12-11T20:48:08.744Z,99.90
2023-12-11T20:50:39.085Z,99.90
2023-12-11T20:53:09.543Z,99.90
2023-12-11T20:55:38.499Z,99.90
2023-12-11T20:58:07.341Z,99.90
2023-12-11T21:00:36.139Z,99.90
2023-12-11T21:03:05.493Z,99.90
2023-12-11T21:05:34.894Z,99.90
2023-12-11T21:08:04.417Z,99.90
2023-12-11T21:10:34.745Z,99.90
2023-12-11T21:13:04.202Z,99.90
2023-12-11T21:15:33.109Z,99.90
2023-12-11T21:18:02.260Z,99.90
2023-12-11T21:20:33.072Z,99.90
2023-12-11T21:23:02.471Z,99.90
2023-12-11T21:25:31.432Z,99.90
2023-12-11T21:28:02.511Z,99.90
2023-12-11T21:30:31.616Z,99.90
2023-12-11T21:33:01.665Z,99.90
2023-12-11T21:35:32.806Z,99.90
2023-12-11T21:38:01.645Z,99.90
2023-12-11T21:40:30.646Z,99.90
2023-12-11T21:43:01.027Z,99.90
2023-12-11T21:45:30.089Z,99.90
2023-12-11T21:47:59.286Z,99.90
2023-12-11T21:50:28.103Z,99.90
2023-12-11T21:52:57.305Z,99.90
2023-12-11T21:55:26.051Z,99.90
2023-12-11T21:57:54.841Z,99.90
2023-12-11T22:00:25.506Z,99.90
2023-12-11T22:02:54.372Z,99.90
2023-12-11T22:05:23.362Z,99.90
2023-12-11T22:07:52.211Z,99.90
2023-12-11T22:10:22.982Z,99.90
2023-12-11T22:12:51.829Z,99.90
2023-12-11T22:15:20.592Z,99.90
2023-12-11T22:17:52.318Z,99.90
2023-12-11T22:20:21.182Z,99.90
2023-12-11T22:22:51.930Z,99.90
2023-12-11T22:25:20.849Z,99.90
2023-12-11T22:27:50.180Z,99.90
2023-12-11T22:30:19.144Z,99.90
2023-12-11T22:32:49.559Z,99.90
2023-12-11T22:35:20.006Z,99.90
2023-12-11T22:37:48.835Z,99.90
2023-12-11T22:40:18.037Z,99.90
2023-12-11T22:42:48.450Z,99.90
2023-12-11T22:45:18.357Z,99.90
2023-12-11T22:47:47.332Z,99.90
2023-12-11T22:50:17.957Z,99.90
2023-12-11T22:52:46.692Z,99.90
2023-12-11T22:55:16.543Z,99.90
2023-12-11T22:57:45.355Z,99.90
2023-12-11T23:00:22.559Z,99.90
2023-12-11T23:02:51.253Z,99.90
2023-12-11T23:05:21.860Z,99.90
2023-12-11T23:07:54.440Z,99.90
2023-12-11T23:10:25.023Z,99.90
2023-12-11T23:12:53.841Z,99.90
2023-12-11T23:15:23.305Z,99.90
2023-12-11T23:17:51.989Z,99.90
2023-12-11T23:20:22.160Z,99.90
2023-12-11T23:22:50.909Z,99.90
2023-12-11T23:25:22.173Z,99.90
2023-12-11T23:27:51.345Z,99.90
2023-12-11T23:30:20.170Z,99.90
2023-12-11T23:32:48.964Z,99.90
2023-12-11T23:35:17.863Z,99.90
2023-12-11T23:37:48.574Z,99.90
2023-12-11T23:40:17.697Z,99.90
2023-12-11T23:42:46.525Z,99.90
2023-12-11T23:45:15.250Z,99.90
2023-12-11T23:47:44.355Z,99.90
2023-12-11T23:50:13.356Z,99.90
2023-12-11T23:52:42.551Z,99.90
2023-12-11T23:55:13.153Z,99.90
2023-12-11T23:57:42.675Z,99.90
